Time;durP1;ratioP1;P1;durP2;ratioP2;P2;SDS_P1;SDS_P2;PMS_P1;PMS_P2;Temp;Humidity;BMP_temperature;BMP_pressure;BME280_temperature;BME280_humidity;BME280_pressure;Samples;Min_cycle;Max_cycle;Signal;HPM_P1;HPM_P2
2023/08/05 00:02:06;;;;;;;6.70;4.30;;;;;;;;;;4898375;29;20037;-59
2023/08/05 00:04:31;;;;;;;7.40;4.10;;;;;;;;;;4897584;29;20048;-60
2023/08/05 00:06:57;;;;;;;6.10;4.07;;;;;;;;;;4897344;29;20039;-60
2023/08/05 00:09:22;;;;;;;7.95;4.43;;;;;;;;;;4896037;29;20459;-60
2023/08/05 00:11:47;;;;;;;11.20;4.90;;;;;;;;;;4896983;29;20035;-60
2023/08/05 00:14:13;;;;;;;7.70;4.53;;;;;;;;;;4894990;29;20032;-60
2023/08/05 00:16:38;;;;;;;10.25;4.75;;;;;;;;;;4898023;29;20047;-60
2023/08/05 00:19:04;;;;;;;8.27;5.47;;;;;;;;;;4897142;29;20163;-59
2023/08/05 00:21:29;;;;;;;8.32;4.95;;;;;;;;;;4893562;29;20655;-60
2023/08/05 00:23:55;;;;;;;10.75;5.15;;;;;;;;;;4892188;29;20042;-60
2023/08/05 00:26:20;;;;;;;8.90;5.40;;;;;;;;;;4896943;29;20056;-60
2023/08/05 00:28:45;;;;;;;10.90;4.93;;;;;;;;;;4896841;29;20363;-60
2023/08/05 00:31:11;;;;;;;6.72;4.60;;;;;;;;;;4897260;29;20505;-60
2023/08/05 00:33:36;;;;;;;8.63;5.00;;;;;;;;;;4894883;29;20125;-60
2023/08/05 00:36:02;;;;;;;9.48;5.30;;;;;;;;;;4897424;29;20028;-60
2023/08/05 00:38:27;;;;;;;11.32;6.03;;;;;;;;;;4895605;29;20096;-60
2023/08/05 00:40:52;;;;;;;10.57;5.95;;;;;;;;;;4894903;29;20462;-60
2023/08/05 00:43:18;;;;;;;8.35;5.35;;;;;;;;;;4895111;29;20048;-60
2023/08/05 00:45:43;;;;;;;8.07;5.45;;;;;;;;;;4894716;29;20048;-60
2023/08/05 00:48:09;;;;;;;7.40;4.85;;;;;;;;;;4896494;29;20032;-59
2023/08/05 00:50:35;;;;;;;7.80;4.95;;;;;;;;;;4896492;29;21823;-60
2023/08/05 00:53:00;;;;;;;8.93;5.72;;;;;;;;;;4897167;29;20517;-61
2023/08/05 00:55:26;;;;;;;8.88;4.95;;;;;;;;;;4894686;29;20458;-61
2023/08/05 00:57:52;;;;;;;10.60;5.82;;;;;;;;;;4904256;29;20097;-61
2023/08/05 01:00:17;;;;;;;7.97;5.35;;;;;;;;;;4903642;29;20079;-61
2023/08/05 01:02:43;;;;;;;15.82;5.57;;;;;;;;;;4899031;29;20040;-61
2023/08/05 01:05:08;;;;;;;8.85;5.43;;;;;;;;;;4896541;29;20440;-60
2023/08/05 01:07:39;;;;;;;9.40;5.93;;;;;;;;;;4911622;29;20028;-60
2023/08/05 01:10:05;;;;;;;8.25;5.63;;;;;;;;;;4903100;29;20441;-60
2023/08/05 01:12:31;;;;;;;8.20;5.47;;;;;;;;;;4896387;29;20033;-60
2023/08/05 01:14:56;;;;;;;8.55;5.95;;;;;;;;;;4896268;29;20025;-60
2023/08/05 01:17:21;;;;;;;8.18;5.57;;;;;;;;;;4896684;29;20159;-60
2023/08/05 01:19:47;;;;;;;9.18;5.95;;;;;;;;;;4879289;29;20041;-60
2023/08/05 01:22:39;;;;;;;9.30;5.80;;;;;;;;;;4905503;29;20496;-60
2023/08/05 01:25:34;;;;;;;11.38;5.90;;;;;;;;;;4908349;29;20028;-60
2023/08/05 01:28:01;;;;;;;9.35;5.47;;;;;;;;;;4896698;29;20573;-60
2023/08/05 01:30:28;;;;;;;11.13;5.75;;;;;;;;;;4902131;29;20036;-60
2023/08/05 01:32:55;;;;;;;8.52;5.65;;;;;;;;;;4903172;29;20056;-60
2023/08/05 01:35:21;;;;;;;10.98;5.78;;;;;;;;;;4896132;29;20040;-60
2023/08/05 01:37:47;;;;;;;9.38;5.55;;;;;;;;;;4913330;29;20370;-60
2023/08/05 01:40:13;;;;;;;9.73;5.72;;;;;;;;;;4911692;29;20036;-59
2023/08/05 01:42:38;;;;;;;9.77;5.88;;;;;;;;;;4912769;29;20500;-60
2023/08/05 01:45:04;;;;;;;10.43;6.13;;;;;;;;;;4894425;29;20041;-60
2023/08/05 01:47:30;;;;;;;9.63;5.63;;;;;;;;;;4910896;29;20047;-60
2023/08/05 01:49:55;;;;;;;9.48;5.80;;;;;;;;;;4908646;29;20183;-60
2023/08/05 01:52:21;;;;;;;9.85;5.85;;;;;;;;;;4897088;29;20024;-60
2023/08/05 01:54:46;;;;;;;10.45;5.53;;;;;;;;;;4909397;29;20055;-60
2023/08/05 01:57:14;;;;;;;12.68;5.97;;;;;;;;;;4889640;29;20514;-60
2023/08/05 01:59:40;;;;;;;10.63;6.28;;;;;;;;;;4909451;29;20050;-60
2023/08/05 02:02:05;;;;;;;8.98;6.00;;;;;;;;;;4913935;29;20032;-60
2023/08/05 02:04:30;;;;;;;10.63;5.68;;;;;;;;;;4914166;29;20111;-60
2023/08/05 02:06:56;;;;;;;10.60;6.25;;;;;;;;;;4885576;29;20031;-60
2023/08/05 02:09:21;;;;;;;11.75;6.63;;;;;;;;;;4907564;29;20469;-60
2023/08/05 02:11:47;;;;;;;10.93;6.28;;;;;;;;;;4894831;29;20033;-60
2023/08/05 02:14:12;;;;;;;9.68;6.10;;;;;;;;;;4913985;29;20087;-61
2023/08/05 02:16:38;;;;;;;9.02;6.45;;;;;;;;;;4907320;29;20039;-60
2023/08/05 02:19:03;;;;;;;11.07;6.35;;;;;;;;;;4901808;29;20640;-60
2023/08/05 02:21:29;;;;;;;11.80;7.03;;;;;;;;;;4878816;29;20458;-60
2023/08/05 02:23:54;;;;;;;11.13;6.30;;;;;;;;;;4894276;29;20060;-60
2023/08/05 02:26:20;;;;;;;12.63;6.60;;;;;;;;;;4895301;29;20036;-60
2023/08/05 02:28:46;;;;;;;10.32;6.30;;;;;;;;;;4903769;29;20092;-60
2023/08/05 02:31:13;;;;;;;14.13;6.82;;;;;;;;;;4894195;29;20041;-60
2023/08/05 02:33:38;;;;;;;11.48;6.05;;;;;;;;;;4902510;29;20079;-60
2023/08/05 02:36:04;;;;;;;10.63;6.13;;;;;;;;;;4900929;29;20311;-61
2023/08/05 02:38:29;;;;;;;9.02;6.03;;;;;;;;;;4911283;29;20047;-61
2023/08/05 02:40:55;;;;;;;11.80;5.80;;;;;;;;;;4904974;29;20043;-60
2023/08/05 02:43:21;;;;;;;9.50;5.88;;;;;;;;;;4903658;29;20397;-61
2023/08/05 02:45:56;;;;;;;10.60;6.13;;;;;;;;;;4913082;29;20032;-61
2023/08/05 02:48:23;;;;;;;8.70;5.82;;;;;;;;;;4881290;29;20113;-60
2023/08/05 02:50:49;;;;;;;11.68;6.70;;;;;;;;;;4910495;29;20492;-61
2023/08/05 02:53:15;;;;;;;9.63;5.88;;;;;;;;;;4893187;29;20489;-60
2023/08/05 02:55:40;;;;;;;9.57;6.13;;;;;;;;;;4896530;29;20039;-60
2023/08/05 02:58:06;;;;;;;10.35;6.40;;;;;;;;;;4881521;29;20045;-61
2023/08/05 03:00:33;;;;;;;13.18;6.57;;;;;;;;;;4883269;29;20056;-60
2023/08/05 03:02:58;;;;;;;12.68;6.78;;;;;;;;;;4894584;29;20032;-60
2023/08/05 03:05:24;;;;;;;11.05;6.50;;;;;;;;;;4895768;29;20047;-59
2023/08/05 03:07:49;;;;;;;10.68;6.43;;;;;;;;;;4894715;29;20059;-60
2023/08/05 03:10:15;;;;;;;9.65;6.22;;;;;;;;;;4877826;29;20036;-60
2023/08/05 03:12:40;;;;;;;9.27;6.63;;;;;;;;;;4896251;29;20038;-59
2023/08/05 03:15:06;;;;;;;10.30;6.63;;;;;;;;;;4895162;29;20090;-60
2023/08/05 03:17:32;;;;;;;11.55;6.65;;;;;;;;;;4911906;29;20051;-60
2023/08/05 03:19:57;;;;;;;12.52;6.32;;;;;;;;;;4896951;29;20036;-60
2023/08/05 03:22:23;;;;;;;11.73;6.07;;;;;;;;;;4870168;29;20040;-60
2023/08/05 03:24:48;;;;;;;8.98;6.10;;;;;;;;;;4888727;29;20534;-61
2023/08/05 03:27:14;;;;;;;9.05;6.07;;;;;;;;;;4899181;29;20035;-61
2023/08/05 03:29:39;;;;;;;8.95;6.38;;;;;;;;;;4881112;29;20423;-60
2023/08/05 03:32:05;;;;;;;10.77;7.07;;;;;;;;;;4890061;29;20080;-60
2023/08/05 03:34:30;;;;;;;11.07;6.38;;;;;;;;;;4878114;29;20037;-60
2023/08/05 03:36:56;;;;;;;11.10;6.82;;;;;;;;;;4876842;29;20041;-60
2023/08/05 03:39:21;;;;;;;10.90;7.03;;;;;;;;;;4877410;29;20036;-60
2023/08/05 03:41:46;;;;;;;10.45;7.22;;;;;;;;;;4880027;29;20045;-60
2023/08/05 03:44:12;;;;;;;14.48;7.60;;;;;;;;;;4894999;29;20492;-60
2023/08/05 03:46:38;;;;;;;13.43;7.93;;;;;;;;;;4899477;29;20035;-60
2023/08/05 03:49:04;;;;;;;15.85;7.30;;;;;;;;;;4889801;29;20041;-60
2023/08/05 03:51:30;;;;;;;13.70;7.38;;;;;;;;;;4894989;29;20048;-59
2023/08/05 03:53:56;;;;;;;9.50;7.30;;;;;;;;;;4885441;29;20043;-60
2023/08/05 03:56:24;;;;;;;15.63;7.40;;;;;;;;;;4880205;29;20521;-59
2023/08/05 03:58:51;;;;;;;15.45;7.28;;;;;;;;;;4880026;29;20045;-61
2023/08/05 04:01:17;;;;;;;15.75;7.88;;;;;;;;;;4879925;29;20084;-60
2023/08/05 04:03:43;;;;;;;11.82;7.95;;;;;;;;;;4891184;29;20076;-60
2023/08/05 04:06:12;;;;;;;10.68;7.18;;;;;;;;;;4896699;29;20586;-60
2023/08/05 04:08:39;;;;;;;10.43;7.40;;;;;;;;;;4896822;29;20067;-60
2023/08/05 04:11:05;;;;;;;16.10;7.47;;;;;;;;;;4894883;29;20060;-60
2023/08/05 04:13:37;;;;;;;12.82;7.93;;;;;;;;;;4895393;29;20043;-60
2023/08/05 04:16:03;;;;;;;11.35;7.68;;;;;;;;;;4895450;29;20104;-59
2023/08/05 04:18:35;;;;;;;11.00;7.78;;;;;;;;;;4897575;29;20040;-59
2023/08/05 04:21:00;;;;;;;15.95;8.15;;;;;;;;;;4891320;29;20040;-60
2023/08/05 04:23:29;;;;;;;12.65;6.90;;;;;;;;;;4894636;29;20033;-59
2023/08/05 04:25:54;;;;;;;11.15;7.00;;;;;;;;;;4897160;29;20504;-60
2023/08/05 04:28:20;;;;;;;11.85;7.35;;;;;;;;;;4881388;29;20041;-60
2023/08/05 04:30:47;;;;;;;10.75;7.38;;;;;;;;;;4882034;29;20515;-59
2023/08/05 04:33:13;;;;;;;9.70;7.32;;;;;;;;;;4893736;29;20029;-59
2023/08/05 04:35:38;;;;;;;11.35;7.35;;;;;;;;;;4897216;29;20032;-60
2023/08/05 04:38:04;;;;;;;13.65;7.30;;;;;;;;;;4896347;29;20029;-59
2023/08/05 04:40:29;;;;;;;12.55;7.30;;;;;;;;;;4896048;29;20033;-60
2023/08/05 04:42:54;;;;;;;9.70;7.20;;;;;;;;;;4893937;29;20029;-60
2023/08/05 04:45:20;;;;;;;12.18;6.88;;;;;;;;;;4898703;29;20445;-59
2023/08/05 04:47:48;;;;;;;10.73;6.75;;;;;;;;;;4897069;29;20092;-59
2023/08/05 04:50:13;;;;;;;9.43;6.70;;;;;;;;;;4895785;29;20097;-59
2023/08/05 04:52:39;;;;;;;9.98;6.93;;;;;;;;;;4896770;29;20024;-59
2023/08/05 04:55:09;;;;;;;11.80;7.25;;;;;;;;;;4894630;29;20040;-59
2023/08/05 04:57:35;;;;;;;10.90;7.10;;;;;;;;;;4897581;29;20466;-59
2023/08/05 05:00:00;;;;;;;13.48;6.80;;;;;;;;;;4897421;29;20068;-59
2023/08/05 05:02:25;;;;;;;11.30;7.00;;;;;;;;;;4894356;29;20075;-60
2023/08/05 05:04:51;;;;;;;12.27;6.97;;;;;;;;;;4898639;29;20033;-59
2023/08/05 05:07:16;;;;;;;12.38;7.10;;;;;;;;;;4875485;29;20083;-59
2023/08/05 05:09:41;;;;;;;12.27;6.75;;;;;;;;;;4897359;29;20127;-59
2023/08/05 05:12:08;;;;;;;9.48;7.07;;;;;;;;;;4894302;29;20477;-59
2023/08/05 05:14:33;;;;;;;8.77;6.50;;;;;;;;;;4898111;29;20053;-59
2023/08/05 05:16:59;;;;;;;10.77;6.72;;;;;;;;;;4896246;29;20466;-60
2023/08/05 05:19:24;;;;;;;11.48;6.90;;;;;;;;;;4897575;29;20025;-60
2023/08/05 05:21:49;;;;;;;11.15;6.38;;;;;;;;;;4897497;29;20036;-60
2023/08/05 05:24:15;;;;;;;10.55;6.57;;;;;;;;;;4893708;29;20524;-61
2023/08/05 05:26:40;;;;;;;9.98;6.40;;;;;;;;;;4894466;29;20088;-59
2023/08/05 05:29:05;;;;;;;9.95;6.32;;;;;;;;;;4897038;29;20033;-60
2023/08/05 05:31:31;;;;;;;9.93;6.45;;;;;;;;;;4879607;29;20358;-60
2023/08/05 05:33:56;;;;;;;12.57;6.68;;;;;;;;;;4896837;29;20044;-61
2023/08/05 05:36:22;;;;;;;13.35;6.80;;;;;;;;;;4894499;29;20032;-60
2023/08/05 05:38:47;;;;;;;11.32;6.97;;;;;;;;;;4897716;29;20032;-60
2023/08/05 05:41:13;;;;;;;11.88;6.78;;;;;;;;;;4894397;29;20032;-60
2023/08/05 05:43:38;;;;;;;13.15;7.45;;;;;;;;;;4896916;29;20037;-60
2023/08/05 05:46:04;;;;;;;10.18;7.10;;;;;;;;;;4896270;29;20056;-60
2023/08/05 05:48:29;;;;;;;10.45;7.35;;;;;;;;;;4895076;29;20075;-60
2023/08/05 05:50:55;;;;;;;11.05;7.20;;;;;;;;;;4895048;29;20505;-60
2023/08/05 05:53:21;;;;;;;11.43;7.35;;;;;;;;;;4893256;29;20039;-59
2023/08/05 05:55:50;;;;;;;10.23;6.80;;;;;;;;;;4902869;29;20037;-60
2023/08/05 05:58:16;;;;;;;12.60;7.13;;;;;;;;;;4894395;29;20037;-59
2023/08/05 06:00:41;;;;;;;13.43;8.10;;;;;;;;;;4891577;29;20036;-59
2023/08/05 06:03:06;;;;;;;11.15;8.10;;;;;;;;;;4894036;29;20052;-60
2023/08/05 06:05:32;;;;;;;13.52;8.15;;;;;;;;;;4893831;29;20108;-60
2023/08/05 06:07:58;;;;;;;12.30;8.18;;;;;;;;;;4896882;29;20111;-60
2023/08/05 06:10:23;;;;;;;12.18;7.95;;;;;;;;;;4895141;29;20047;-59
2023/08/05 06:12:49;;;;;;;11.82;7.80;;;;;;;;;;4896942;29;20100;-59
2023/08/05 06:15:14;;;;;;;10.98;7.60;;;;;;;;;;4895206;29;20033;-60
2023/08/05 06:17:40;;;;;;;12.45;8.00;;;;;;;;;;4896251;29;20028;-60
2023/08/05 06:20:07;;;;;;;11.98;7.97;;;;;;;;;;4893850;29;20037;-60
2023/08/05 06:22:32;;;;;;;14.95;8.40;;;;;;;;;;4896975;29;20025;-60
2023/08/05 06:24:58;;;;;;;12.38;8.10;;;;;;;;;;4896664;29;20480;-60
2023/08/05 06:27:26;;;;;;;12.90;8.68;;;;;;;;;;4895417;29;20160;-59
2023/08/05 06:29:52;;;;;;;13.38;8.82;;;;;;;;;;4895871;29;20036;-60
2023/08/05 06:32:17;;;;;;;13.88;9.10;;;;;;;;;;4895401;29;20702;-59
2023/08/05 06:34:42;;;;;;;13.95;8.60;;;;;;;;;;4896844;29;20112;-59
2023/08/05 06:37:08;;;;;;;14.70;8.68;;;;;;;;;;4888153;29;20040;-59
2023/08/05 06:39:33;;;;;;;12.05;8.40;;;;;;;;;;4895638;29;20194;-60
2023/08/05 06:41:59;;;;;;;12.80;8.23;;;;;;;;;;4896121;29;20032;-59
2023/08/05 06:44:25;;;;;;;15.63;8.93;;;;;;;;;;4896558;29;20036;-59
2023/08/05 06:46:50;;;;;;;13.23;8.38;;;;;;;;;;4895739;29;20043;-60
2023/08/05 06:49:16;;;;;;;13.32;8.10;;;;;;;;;;4895397;29;20469;-60
2023/08/05 06:51:41;;;;;;;12.65;8.15;;;;;;;;;;4895815;29;20371;-61
2023/08/05 06:54:10;;;;;;;12.35;8.48;;;;;;;;;;4894573;29;20056;-60
2023/08/05 06:56:36;;;;;;;12.93;7.93;;;;;;;;;;4896461;29;20063;-59
2023/08/05 06:59:01;;;;;;;14.30;7.80;;;;;;;;;;4878997;29;20119;-60
2023/08/05 07:01:27;;;;;;;11.65;7.97;;;;;;;;;;4896390;29;20032;-60
2023/08/05 07:03:52;;;;;;;17.15;7.78;;;;;;;;;;4895584;29;20043;-59
2023/08/05 07:06:18;;;;;;;11.35;7.20;;;;;;;;;;4895835;29;20033;-60
2023/08/05 07:08:43;;;;;;;10.95;7.10;;;;;;;;;;4895592;29;20051;-60
2023/08/05 07:11:08;;;;;;;12.88;6.85;;;;;;;;;;4877613;29;20397;-60
2023/08/05 07:13:37;;;;;;;10.13;6.43;;;;;;;;;;4896685;29;20031;-60
2023/08/05 07:16:03;;;;;;;10.25;6.28;;;;;;;;;;4895868;29;20530;-60
2023/08/05 07:18:32;;;;;;;10.98;5.88;;;;;;;;;;4900265;29;20024;-59
2023/08/05 07:20:58;;;;;;;11.18;5.32;;;;;;;;;;4899962;29;20075;-59
2023/08/05 07:23:24;;;;;;;8.98;5.38;;;;;;;;;;4899264;29;20081;-59
2023/08/05 07:25:49;;;;;;;9.68;5.22;;;;;;;;;;4898956;29;20041;-59
2023/08/05 07:28:15;;;;;;;10.13;5.20;;;;;;;;;;4898094;29;20036;-60
2023/08/05 07:30:40;;;;;;;10.45;5.93;;;;;;;;;;4882955;29;20529;-60
2023/08/05 07:33:09;;;;;;;9.23;5.65;;;;;;;;;;4899211;29;20040;-59
2023/08/05 07:35:34;;;;;;;9.00;4.88;;;;;;;;;;4898500;29;20484;-60
2023/08/05 07:38:09;;;;;;;8.65;4.97;;;;;;;;;;4898690;29;20029;-59
2023/08/05 07:40:35;;;;;;;7.95;5.18;;;;;;;;;;4899671;29;20040;-60
2023/08/05 07:43:00;;;;;;;12.07;5.82;;;;;;;;;;4899725;29;20033;-59
2023/08/05 07:45:26;;;;;;;8.45;5.20;;;;;;;;;;4897903;29;20055;-59
2023/08/05 07:47:52;;;;;;;9.43;4.70;;;;;;;;;;4898176;29;20057;-59
2023/08/05 07:50:22;;;;;;;9.18;5.35;;;;;;;;;;4898475;29;20100;-59
2023/08/05 07:52:51;;;;;;;10.25;5.95;;;;;;;;;;4898822;29;20041;-59
2023/08/05 07:55:18;;;;;;;10.63;5.22;;;;;;;;;;4896854;29;20060;-60
2023/08/05 07:57:46;;;;;;;9.25;5.38;;;;;;;;;;4898939;29;20060;-59
2023/08/05 08:00:14;;;;;;;8.63;5.32;;;;;;;;;;4897855;29;20033;-59
2023/08/05 08:02:46;;;;;;;10.90;5.75;;;;;;;;;;4897111;29;20464;-60
2023/08/05 08:05:14;;;;;;;9.75;5.32;;;;;;;;;;4898555;29;20056;-60
2023/08/05 08:07:46;;;;;;;10.27;5.40;;;;;;;;;;4898749;29;20033;-62
2023/08/05 08:10:12;;;;;;;8.10;4.80;;;;;;;;;;4893515;29;20040;-61
2023/08/05 08:12:38;;;;;;;8.52;4.35;;;;;;;;;;4897036;29;20131;-60
2023/08/05 08:15:04;;;;;;;7.00;4.60;;;;;;;;;;4898942;29;20032;-60
2023/08/05 08:17:29;;;;;;;7.93;4.90;;;;;;;;;;4878845;29;20124;-60
2023/08/05 08:19:54;;;;;;;8.95;4.93;;;;;;;;;;4899095;29;20116;-60
2023/08/05 08:22:20;;;;;;;8.55;4.55;;;;;;;;;;4897828;29;20537;-60
2023/08/05 08:24:45;;;;;;;9.25;4.60;;;;;;;;;;4898684;29;20055;-61
2023/08/05 08:27:10;;;;;;;7.13;4.60;;;;;;;;;;4897825;29;20057;-60
2023/08/05 08:29:36;;;;;;;9.90;4.90;;;;;;;;;;4879218;29;20040;-60
2023/08/05 08:32:02;;;;;;;7.30;4.72;;;;;;;;;;4898799;29;20031;-61
2023/08/05 08:34:27;;;;;;;9.93;4.82;;;;;;;;;;4897030;29;20052;-60
2023/08/05 08:36:53;;;;;;;8.75;5.40;;;;;;;;;;4897309;29;20088;-60
2023/08/05 08:39:18;;;;;;;9.93;5.65;;;;;;;;;;4897776;29;20378;-60
2023/08/05 08:41:48;;;;;;;8.13;6.00;;;;;;;;;;4896651;29;20060;-60
2023/08/05 08:44:16;;;;;;;10.77;6.37;;;;;;;;;;4896470;29;20044;-63
2023/08/05 08:46:43;;;;;;;10.02;6.88;;;;;;;;;;4894146;29;20088;-64
2023/08/05 08:49:09;;;;;;;10.55;6.72;;;;;;;;;;4897328;29;20020;-67
2023/08/05 08:51:37;;;;;;;14.25;6.63;;;;;;;;;;4877963;29;20170;-63
2023/08/05 08:54:03;;;;;;;10.25;6.53;;;;;;;;;;4896183;29;20033;-63
2023/08/05 08:56:28;;;;;;;10.00;6.53;;;;;;;;;;4895617;29;20929;-64
2023/08/05 08:58:53;;;;;;;13.70;8.07;;;;;;;;;;4898311;29;20163;-64
2023/08/05 09:01:21;;;;;;;14.70;8.48;;;;;;;;;;4894591;29;20112;-64
2023/08/05 09:03:51;;;;;;;15.73;9.52;;;;;;;;;;4895178;29;20036;-64
2023/08/05 09:06:21;;;;;;;13.60;9.32;;;;;;;;;;4888455;29;20036;-65
2023/08/05 09:08:47;;;;;;;14.73;9.45;;;;;;;;;;4902341;29;20167;-64
2023/08/05 09:11:17;;;;;;;12.48;8.70;;;;;;;;;;4879027;29;20080;-64
2023/08/05 09:13:43;;;;;;;13.97;8.90;;;;;;;;;;4879295;29;20041;-64
2023/08/05 09:16:14;;;;;;;13.68;8.40;;;;;;;;;;4878731;29;20051;-67
2023/08/05 09:18:53;;;;;;;10.20;7.20;;;;;;;;;;4864482;29;20136;-64
2023/08/05 09:21:26;;;;;;;13.20;7.75;;;;;;;;;;4895505;29;20043;-65
2023/08/05 09:23:55;;;;;;;11.63;7.47;;;;;;;;;;4896656;29;20047;-64
2023/08/05 09:26:32;;;;;;;10.70;7.20;;;;;;;;;;4880015;29;20048;-64
2023/08/05 09:28:59;;;;;;;10.57;7.43;;;;;;;;;;4897229;29;20036;-63
2023/08/05 09:31:25;;;;;;;10.55;7.88;;;;;;;;;;4904946;29;20028;-64
2023/08/05 09:33:50;;;;;;;12.40;8.45;;;;;;;;;;4905486;29;20406;-63
2023/08/05 09:36:16;;;;;;;11.50;7.88;;;;;;;;;;4896358;29;20064;-64
2023/08/05 09:38:47;;;;;;;11.05;8.05;;;;;;;;;;4897330;29;20466;-63
2023/08/05 09:41:13;;;;;;;10.43;7.30;;;;;;;;;;4898916;29;20063;-64
2023/08/05 09:43:43;;;;;;;10.35;6.50;;;;;;;;;;4898528;29;20449;-65
2023/08/05 09:46:15;;;;;;;9.77;6.90;;;;;;;;;;4898114;29;20039;-66
2023/08/05 09:48:42;;;;;;;10.35;6.72;;;;;;;;;;4897584;29;20597;-63
2023/08/05 09:51:12;;;;;;;11.25;7.10;;;;;;;;;;4908999;29;20039;-65
2023/08/05 09:53:39;;;;;;;10.18;7.30;;;;;;;;;;4891897;29;20466;-64
2023/08/05 09:56:06;;;;;;;11.10;7.53;;;;;;;;;;4895877;29;20059;-64
2023/08/05 09:58:37;;;;;;;9.77;6.88;;;;;;;;;;4893178;29;20066;-65
2023/08/05 10:01:07;;;;;;;12.75;7.88;;;;;;;;;;4896188;29;20076;-65
2023/08/05 10:03:35;;;;;;;11.27;7.75;;;;;;;;;;4878011;29;20033;-63
2023/08/05 10:06:03;;;;;;;10.05;7.50;;;;;;;;;;4878387;29;20501;-64
2023/08/05 10:08:30;;;;;;;12.65;7.82;;;;;;;;;;4895944;29;20100;-64
2023/08/05 10:10:56;;;;;;;10.98;7.72;;;;;;;;;;4896028;29;20048;-63
2023/08/05 10:13:22;;;;;;;11.60;7.72;;;;;;;;;;4896631;29;20033;-62
2023/08/05 10:15:51;;;;;;;11.55;7.35;;;;;;;;;;4881243;29;20059;-64
2023/08/05 10:18:17;;;;;;;11.95;7.43;;;;;;;;;;4896923;29;20478;-63
2023/08/05 10:20:48;;;;;;;10.43;7.20;;;;;;;;;;4895182;29;20064;-64
2023/08/05 10:23:13;;;;;;;9.35;6.28;;;;;;;;;;4894730;29;20036;-66
2023/08/05 10:25:47;;;;;;;9.65;6.82;;;;;;;;;;4895516;29;20044;-67
2023/08/05 10:28:25;;;;;;;9.18;6.22;;;;;;;;;;4896052;29;20131;-66
2023/08/05 10:30:51;;;;;;;9.98;7.03;;;;;;;;;;4897206;29;20127;-63
2023/08/05 10:33:20;;;;;;;10.32;7.15;;;;;;;;;;4893216;29;20036;-63
2023/08/05 10:35:46;;;;;;;9.07;6.38;;;;;;;;;;4877837;29;20486;-63
2023/08/05 10:38:23;;;;;;;9.68;7.13;;;;;;;;;;4894570;29;20087;-66
2023/08/05 10:40:50;;;;;;;10.40;7.15;;;;;;;;;;4895855;29;20131;-63
2023/08/05 10:43:31;;;;;;;9.90;7.05;;;;;;;;;;4894711;29;20021;-64
2023/08/05 10:45:58;;;;;;;9.18;6.30;;;;;;;;;;4896720;29;20067;-63
2023/08/05 10:48:33;;;;;;;10.05;6.90;;;;;;;;;;4893441;29;20025;-63
2023/08/05 10:51:03;;;;;;;9.95;7.25;;;;;;;;;;4898141;29;20033;-64
2023/08/05 10:53:31;;;;;;;10.55;7.30;;;;;;;;;;4898479;29;20028;-63
2023/08/05 10:55:57;;;;;;;10.50;7.80;;;;;;;;;;4899992;29;20080;-63
2023/08/05 10:58:26;;;;;;;10.70;7.82;;;;;;;;;;4899683;29;20037;-62
2023/08/05 11:01:03;;;;;;;10.00;6.70;;;;;;;;;;4899246;29;20401;-63
2023/08/05 11:03:45;;;;;;;10.68;6.65;;;;;;;;;;4899245;29;20045;-63
2023/08/05 11:06:13;;;;;;;8.98;6.63;;;;;;;;;;4896481;29;20029;-63
2023/08/05 11:08:43;;;;;;;10.52;7.10;;;;;;;;;;4880887;29;20089;-65
2023/08/05 11:11:15;;;;;;;12.73;7.65;;;;;;;;;;4898405;29;20040;-63
2023/08/05 11:13:42;;;;;;;8.75;7.05;;;;;;;;;;4899525;29;20508;-63
2023/08/05 11:16:12;;;;;;;8.30;6.75;;;;;;;;;;4899815;29;20040;-64
2023/08/05 11:18:45;;;;;;;7.85;6.15;;;;;;;;;;4899261;29;20053;-63
2023/08/05 11:21:15;;;;;;;7.00;5.68;;;;;;;;;;4899839;29;20439;-63
2023/08/05 11:23:45;;;;;;;7.65;5.60;;;;;;;;;;4898188;29;20454;-63
2023/08/05 11:26:11;;;;;;;9.25;5.90;;;;;;;;;;4898994;29;20111;-63
2023/08/05 11:28:44;;;;;;;8.57;5.80;;;;;;;;;;4899025;29;20291;-63
2023/08/05 11:31:09;;;;;;;7.95;6.10;;;;;;;;;;4899584;29;20449;-62
2023/08/05 11:33:35;;;;;;;6.93;5.50;;;;;;;;;;4898922;29;20028;-63
2023/08/05 11:36:00;;;;;;;7.78;5.63;;;;;;;;;;4898574;29;20041;-62
2023/08/05 11:38:26;;;;;;;7.75;5.65;;;;;;;;;;4898850;29;20044;-63
2023/08/05 11:40:56;;;;;;;8.90;5.93;;;;;;;;;;4900359;29;20039;-62
2023/08/05 11:43:23;;;;;;;7.78;5.78;;;;;;;;;;4896759;29;20402;-63
2023/08/05 11:45:49;;;;;;;7.60;5.43;;;;;;;;;;4900055;29;20047;-62
2023/08/05 11:48:18;;;;;;;7.68;5.15;;;;;;;;;;4897986;29;20079;-66
2023/08/05 11:50:44;;;;;;;6.05;4.80;;;;;;;;;;4899496;29;20071;-62
2023/08/05 11:53:12;;;;;;;8.55;5.70;;;;;;;;;;4899943;29;20103;-62
2023/08/05 11:55:39;;;;;;;6.85;5.43;;;;;;;;;;4882021;29;20033;-62
2023/08/05 11:58:06;;;;;;;7.32;5.90;;;;;;;;;;4900009;29;20052;-62
2023/08/05 12:00:32;;;;;;;9.70;5.93;;;;;;;;;;4896357;29;20037;-62
2023/08/05 12:02:57;;;;;;;7.78;5.90;;;;;;;;;;4899339;29;20040;-62
2023/08/05 12:05:23;;;;;;;9.15;6.18;;;;;;;;;;4898343;29;20036;-62
2023/08/05 12:07:49;;;;;;;9.23;5.78;;;;;;;;;;4883413;29;20051;-62
2023/08/05 12:10:20;;;;;;;7.15;5.60;;;;;;;;;;4901262;29;20040;-64
2023/08/05 12:12:49;;;;;;;9.48;5.50;;;;;;;;;;4899094;29;20465;-64
2023/08/05 12:15:17;;;;;;;7.25;5.50;;;;;;;;;;4883621;29;20449;-63
2023/08/05 12:17:48;;;;;;;7.15;5.40;;;;;;;;;;4898791;29;20520;-64
2023/08/05 12:20:21;;;;;;;6.85;5.40;;;;;;;;;;4900163;29;20438;-62
2023/08/05 12:22:47;;;;;;;5.43;4.82;;;;;;;;;;4882465;29;20041;-64
2023/08/05 12:25:13;;;;;;;6.22;5.25;;;;;;;;;;4899336;29;20100;-65
2023/08/05 12:27:39;;;;;;;9.40;5.82;;;;;;;;;;4900020;29;20091;-63
2023/08/05 12:30:07;;;;;;;7.68;5.72;;;;;;;;;;4900877;29;20112;-63
2023/08/05 12:32:36;;;;;;;7.03;6.00;;;;;;;;;;4897180;29;20370;-63
2023/08/05 12:35:02;;;;;;;7.05;5.38;;;;;;;;;;4865999;29;20028;-63
2023/08/05 12:37:28;;;;;;;6.53;5.40;;;;;;;;;;4897209;29;20032;-63
2023/08/05 12:39:53;;;;;;;8.13;5.53;;;;;;;;;;4897446;29;20035;-63
2023/08/05 12:42:21;;;;;;;7.80;5.53;;;;;;;;;;4897239;29;20024;-66
2023/08/05 12:44:47;;;;;;;6.10;5.05;;;;;;;;;;4898246;29;20045;-63
2023/08/05 12:47:12;;;;;;;7.45;5.40;;;;;;;;;;4898520;29;20039;-62
2023/08/05 12:49:39;;;;;;;6.90;5.35;;;;;;;;;;4897747;29;20025;-63
2023/08/05 12:52:05;;;;;;;6.97;5.22;;;;;;;;;;4897173;29;20033;-63
2023/08/05 12:54:30;;;;;;;5.78;4.82;;;;;;;;;;4897802;29;20059;-63
2023/08/05 12:56:56;;;;;;;7.10;5.43;;;;;;;;;;4897880;29;20100;-62
2023/08/05 12:59:21;;;;;;;8.50;6.10;;;;;;;;;;4897848;29;20044;-66
2023/08/05 13:01:47;;;;;;;12.48;8.85;;;;;;;;;;4896260;29;20097;-63
2023/08/05 13:04:12;;;;;;;11.52;8.32;;;;;;;;;;4897945;29;20397;-62
2023/08/05 13:06:38;;;;;;;11.70;6.05;;;;;;;;;;4897426;29;20120;-62
2023/08/05 13:09:03;;;;;;;7.03;5.75;;;;;;;;;;4898971;29;20028;-62
2023/08/05 13:11:29;;;;;;;8.85;5.75;;;;;;;;;;4896450;29;20043;-63
2023/08/05 13:13:55;;;;;;;6.47;5.35;;;;;;;;;;4898769;29;20370;-63
2023/08/05 13:16:20;;;;;;;6.55;5.28;;;;;;;;;;4897815;29;20028;-66
2023/08/05 13:18:46;;;;;;;8.35;5.53;;;;;;;;;;4892301;29;20047;-63
2023/08/05 13:21:11;;;;;;;8.48;5.88;;;;;;;;;;4879554;29;20112;-63
2023/08/05 13:23:37;;;;;;;11.85;9.90;;;;;;;;;;4896246;29;20047;-62
2023/08/05 13:26:02;;;;;;;10.27;5.82;;;;;;;;;;4898350;29;20087;-62
2023/08/05 13:28:28;;;;;;;7.90;6.40;;;;;;;;;;4881014;29;20036;-62
2023/08/05 13:31:01;;;;;;;6.57;5.00;;;;;;;;;;4899002;29;20037;-63
2023/08/05 13:33:27;;;;;;;6.90;5.20;;;;;;;;;;4892499;29;20474;-63
2023/08/05 13:35:52;;;;;;;7.65;5.47;;;;;;;;;;4899813;29;20123;-62
2023/08/05 13:38:19;;;;;;;7.90;5.00;;;;;;;;;;4897766;29;20043;-63
2023/08/05 13:40:52;;;;;;;7.80;4.97;;;;;;;;;;4898221;29;20119;-63
2023/08/05 13:43:17;;;;;;;8.25;4.95;;;;;;;;;;4897308;29;20044;-62
2023/08/05 13:45:50;;;;;;;6.85;4.50;;;;;;;;;;4897769;29;20017;-62
2023/08/05 13:48:16;;;;;;;11.77;5.10;;;;;;;;;;4899038;29;20036;-62
2023/08/05 13:50:41;;;;;;;7.55;4.90;;;;;;;;;;4898195;29;20033;-62
2023/08/05 13:53:06;;;;;;;7.38;4.82;;;;;;;;;;4897061;29;20048;-62
2023/08/05 13:55:32;;;;;;;5.63;4.65;;;;;;;;;;4897484;29;20362;-62
2023/08/05 13:57:58;;;;;;;6.68;4.88;;;;;;;;;;4898889;29;20057;-62
2023/08/05 14:00:23;;;;;;;10.23;7.93;;;;;;;;;;4897431;29;20457;-64
2023/08/05 14:02:51;;;;;;;2.90;1.90;;;;;;;;;;4895938;29;20039;-60
2023/08/05 14:05:16;;;;;;;9.32;3.72;;;;;;;;;;4897488;29;20032;-59
2023/08/05 14:07:42;;;;;;;7.55;3.60;;;;;;;;;;4911281;29;20032;-58
2023/08/05 14:10:08;;;;;;;7.68;3.85;;;;;;;;;;4892241;29;20033;-60
2023/08/05 14:12:34;;;;;;;8.27;4.53;;;;;;;;;;4900881;29;20469;-58
2023/08/05 14:14:59;;;;;;;8.38;4.53;;;;;;;;;;4893724;29;20088;-58
2023/08/05 14:17:25;;;;;;;8.88;4.90;;;;;;;;;;4895183;29;20473;-61
2023/08/05 14:19:50;;;;;;;8.93;5.55;;;;;;;;;;4894984;29;20055;-58
2023/08/05 14:22:15;;;;;;;8.15;5.43;;;;;;;;;;4893819;29;20363;-59
2023/08/05 14:24:41;;;;;;;9.20;5.18;;;;;;;;;;4896366;29;20032;-58
2023/08/05 14:27:06;;;;;;;13.85;8.07;;;;;;;;;;4897469;29;20039;-59
2023/08/05 14:29:32;;;;;;;13.88;9.35;;;;;;;;;;4894338;29;20096;-58
2023/08/05 14:31:57;;;;;;;9.50;6.03;;;;;;;;;;4895620;29;20044;-60
2023/08/05 14:34:23;;;;;;;9.18;6.28;;;;;;;;;;4894279;29;20434;-61